< < Back
Terminal Aerodrome Forecast


Current Version              Previous Versions:   1  2  3  4  5  6  7  8  9  

Terminal Aerodrome Forecast

452
FTUS42 KGSP 181100
TAFAND
TAF
KAND 181133Z 1812/1912 06009KT P6SM FEW025 SCT050 OVC200
     FM181600 06010KT P6SM OVC020
     FM182000 06012G18KT 5SM -RA OVC012
     FM190200 04014G22KT 4SM RA OVC009=

Latest METAR

389
SAUS70 KWBC 181300 RRA
MTRAND
METAR KAND 181256Z AUTO 05008KT 10SM OVC070 11/04 A3038 RMK AO2 SLP286
T01060044


USA.gov is the U.S. government's official web portal to all federal, state and local government web resources and services.